Time;durP1;ratioP1;P1;durP2;ratioP2;P2;SDS_P1;SDS_P2;PMS_P1;PMS_P2;Temp;Humidity;BMP_temperature;BMP_pressure;BME280_temperature;BME280_humidity;BME280_pressure;Samples;Min_cycle;Max_cycle;Signal;HPM_P1;HPM_P2
2022/06/17 00:01:04;;;;;;;10.73;7.78;;;20.80;99.90;;;;;;4988642;28;20078;-67
2022/06/17 00:03:33;;;;;;;10.27;7.22;;;20.80;99.90;;;;;;4989086;28;20423;-67
2022/06/17 00:06:01;;;;;;;10.05;6.90;;;20.70;99.90;;;;;;4988994;28;20034;-66
2022/06/17 00:08:38;;;;;;;13.93;7.57;;;20.60;99.90;;;;;;4989985;28;20027;-66
2022/06/17 00:11:11;;;;;;;8.93;7.47;;;20.60;99.90;;;;;;4978442;28;20028;-66
2022/06/17 00:13:37;;;;;;;11.57;7.50;;;20.60;99.90;;;;;;4977591;28;20054;-67
2022/06/17 00:16:03;;;;;;;9.25;7.35;;;20.60;99.90;;;;;;4981901;28;20479;-66
2022/06/17 00:18:28;;;;;;;10.98;7.55;;;20.60;99.90;;;;;;4982646;28;20110;-67
2022/06/17 00:20:54;;;;;;;10.20;7.80;;;20.50;99.90;;;;;;4982284;28;20031;-67
2022/06/17 00:23:22;;;;;;;9.52;7.95;;;20.60;99.90;;;;;;4980387;28;20030;-66
2022/06/17 00:25:49;;;;;;;10.32;7.60;;;20.50;99.90;;;;;;4977518;28;20034;-67
2022/06/17 00:28:21;;;;;;;8.70;7.82;;;20.40;99.90;;;;;;4979853;28;20065;-66
2022/06/17 00:30:47;;;;;;;9.95;7.68;;;20.40;99.90;;;;;;4982078;28;20030;-66
2022/06/17 00:33:14;;;;;;;10.40;8.25;;;20.30;99.90;;;;;;4982082;28;20455;-66
2022/06/17 00:35:46;;;;;;;13.73;8.60;;;20.20;99.90;;;;;;4982295;28;20031;-67
2022/06/17 00:38:17;;;;;;;11.60;8.45;;;20.10;99.90;;;;;;4979128;28;20080;-65
2022/06/17 00:40:44;;;;;;;11.38;8.00;;;20.00;99.90;;;;;;4976979;28;20050;-67
2022/06/17 00:43:30;;;;;;;9.93;7.90;;;20.10;99.90;;;;;;4980479;28;20026;-66
2022/06/17 00:46:33;;;;;;;11.35;7.97;;;20.10;99.90;;;;;;4982033;28;20070;-67
2022/06/17 00:49:05;;;;;;;11.35;8.50;;;20.00;99.90;;;;;;4988342;28;20030;-66
2022/06/17 00:51:55;;;;;;;8.75;7.75;;;20.00;99.90;;;;;;4988126;28;20045;-66
2022/06/17 00:54:25;;;;;;;10.85;8.20;;;20.10;99.90;;;;;;4987880;28;20218;-67
2022/06/17 00:56:51;;;;;;;15.07;8.57;;;20.20;99.90;;;;;;4990040;28;20025;-66
2022/06/17 00:59:17;;;;;;;10.40;8.07;;;20.20;99.90;;;;;;4979454;28;20435;-67
2022/06/17 01:01:46;;;;;;;10.63;8.00;;;20.30;99.90;;;;;;4977243;28;20034;-66
2022/06/17 01:04:18;;;;;;;10.48;8.38;;;20.10;99.90;;;;;;4977831;28;20027;-67
2022/06/17 01:06:52;;;;;;;13.68;7.90;;;19.90;99.90;;;;;;4981439;28;20050;-65
2022/06/17 01:12:11;;;;;;;11.55;8.60;;;20.00;99.90;;;;;;4981392;28;20037;-66
2022/06/17 01:14:40;;;;;;;11.73;8.25;;;19.90;99.90;;;;;;4981388;28;20037;-66
2022/06/17 01:17:08;;;;;;;14.30;8.05;;;20.20;99.90;;;;;;4977549;28;20100;-65
2022/06/17 01:19:52;;;;;;;12.95;8.20;;;20.20;99.90;;;;;;4977173;28;20480;-67
2022/06/17 01:22:27;;;;;;;13.15;8.13;;;20.50;99.90;;;;;;4976425;28;20034;-66
2022/06/17 01:25:34;;;;;;;9.93;7.40;;;21.20;99.90;;;;;;4986923;28;20510;-65
2022/06/17 01:28:09;;;;;;;11.68;7.63;;;21.10;99.90;;;;;;4975304;28;20049;-67
2022/06/17 01:30:44;;;;;;;10.45;7.70;;;20.60;99.90;;;;;;4983854;28;20395;-66
2022/06/17 01:33:20;;;;;;;10.73;8.20;;;20.50;99.90;;;;;;4981079;28;20029;-67
2022/06/17 01:35:58;;;;;;;9.15;8.10;;;20.20;99.90;;;;;;4981100;28;20035;-65
2022/06/17 01:38:25;;;;;;;10.32;7.90;;;20.20;99.90;;;;;;4977004;28;20019;-66
2022/06/17 01:40:54;;;;;;;10.85;8.25;;;20.20;99.90;;;;;;4990721;28;20113;-67
2022/06/17 01:43:23;;;;;;;8.75;7.78;;;19.90;99.90;;;;;;4988263;28;20040;-66
2022/06/17 01:46:10;;;;;;;9.93;7.43;;;19.80;99.90;;;;;;4987500;28;20026;-66
2022/06/17 01:48:39;;;;;;;9.13;8.10;;;20.00;99.90;;;;;;4987537;28;20475;-67
2022/06/17 01:51:07;;;;;;;9.00;8.07;;;20.00;99.90;;;;;;4987227;28;20107;-66
2022/06/17 01:53:39;;;;;;;10.95;7.10;;;19.90;99.90;;;;;;4987316;28;20069;-65
2022/06/17 01:56:13;;;;;;;10.50;8.10;;;20.30;99.90;;;;;;4976907;28;20072;-67
2022/06/17 01:59:02;;;;;;;12.07;8.00;;;20.20;99.90;;;;;;4989553;28;20032;-66
2022/06/17 02:01:31;;;;;;;10.55;7.70;;;20.20;99.90;;;;;;4988473;28;20550;-66
2022/06/17 02:04:02;;;;;;;10.18;7.57;;;19.80;99.90;;;;;;4980762;28;20031;-67
2022/06/17 02:07:00;;;;;;;11.77;8.57;;;19.50;99.90;;;;;;4980710;28;20506;-67
2022/06/17 02:09:26;;;;;;;9.30;8.00;;;19.50;99.90;;;;;;4908148;29;20071;-67
2022/06/17 02:11:53;;;;;;;9.27;7.53;;;20.00;99.90;;;;;;4908507;29;20068;-67
2022/06/17 02:14:20;;;;;;;8.18;7.13;;;20.30;99.90;;;;;;4912830;29;20024;-67
2022/06/17 02:16:49;;;;;;;14.70;8.07;;;20.80;99.90;;;;;;4913063;29;20397;-67
2022/06/17 02:19:15;;;;;;;8.60;7.70;;;20.70;99.90;;;;;;4912254;29;20044;-67
2022/06/17 02:21:46;;;;;;;11.98;8.02;;;20.70;99.90;;;;;;4916716;29;20048;-65
2022/06/17 02:24:13;;;;;;;9.10;7.97;;;20.60;99.90;;;;;;4915891;29;20031;-66
2022/06/17 02:26:41;;;;;;;10.15;7.63;;;20.10;99.90;;;;;;4916254;29;20127;-66
2022/06/17 02:29:10;;;;;;;12.13;7.80;;;20.60;99.90;;;;;;4916325;29;20047;-67
2022/06/17 02:31:37;;;;;;;11.27;8.70;;;20.70;99.90;;;;;;4916244;29;20048;-67
2022/06/17 02:34:05;;;;;;;11.88;8.63;;;20.00;99.90;;;;;;4916785;29;20016;-67
2022/06/17 02:36:41;;;;;;;9.95;9.02;;;20.10;99.90;;;;;;4915763;29;20047;-67
2022/06/17 02:39:11;;;;;;;13.23;9.90;;;20.30;99.90;;;;;;4915974;29;20119;-67
2022/06/17 02:41:39;;;;;;;15.02;9.95;;;20.50;99.90;;;;;;4915987;29;20493;-67
2022/06/17 02:44:20;;;;;;;11.40;9.48;;;20.10;99.90;;;;;;4925675;28;20020;-67
2022/06/17 02:46:48;;;;;;;11.77;10.07;;;20.20;99.90;;;;;;4979581;28;20054;-67
2022/06/17 02:49:22;;;;;;;11.35;10.25;;;20.20;99.90;;;;;;4981984;28;20055;-67
2022/06/17 02:51:49;;;;;;;15.32;10.65;;;20.40;99.90;;;;;;4983687;28;20526;-66
2022/06/17 02:54:23;;;;;;;12.68;10.05;;;20.30;99.90;;;;;;4984126;28;20095;-67
2022/06/17 02:56:52;;;;;;;13.38;10.50;;;20.20;99.90;;;;;;4977579;28;20047;-67
2022/06/17 02:59:28;;;;;;;13.48;11.20;;;20.60;99.90;;;;;;4992583;28;20113;-67
2022/06/17 03:01:58;;;;;;;10.82;9.70;;;20.40;99.90;;;;;;4993993;28;20399;-67
2022/06/17 03:04:30;;;;;;;12.90;10.80;;;20.60;99.90;;;;;;4990904;28;20737;-67
2022/06/17 03:06:56;;;;;;;12.07;10.77;;;20.60;99.90;;;;;;4983560;28;20027;-65
2022/06/17 03:09:33;;;;;;;15.13;11.95;;;20.60;99.90;;;;;;4983524;28;20061;-67
2022/06/17 03:12:08;;;;;;;13.90;10.85;;;19.90;99.90;;;;;;4983541;28;20027;-67
2022/06/17 03:14:49;;;;;;;13.20;11.90;;;19.80;99.90;;;;;;4983484;28;20050;-67
2022/06/17 03:17:18;;;;;;;13.00;11.70;;;19.60;99.90;;;;;;4980924;28;20044;-67
2022/06/17 03:19:46;;;;;;;14.13;12.10;;;19.30;99.90;;;;;;4979241;28;20035;-67
2022/06/17 03:22:13;;;;;;;14.60;12.15;;;19.40;99.90;;;;;;4979382;28;20038;-65
2022/06/17 03:24:43;;;;;;;13.57;12.20;;;19.50;99.90;;;;;;4983163;28;20039;-67
2022/06/17 03:27:19;;;;;;;13.85;12.27;;;19.50;99.90;;;;;;4983127;28;20481;-67
2022/06/17 03:29:46;;;;;;;13.07;11.57;;;19.30;99.90;;;;;;4983085;28;20037;-67
2022/06/17 03:32:22;;;;;;;13.50;12.15;;;19.60;99.90;;;;;;4980472;28;20041;-67
2022/06/17 03:34:53;;;;;;;14.30;12.80;;;19.10;99.90;;;;;;4978526;28;20027;-67
2022/06/17 03:37:28;;;;;;;13.80;12.40;;;18.80;99.90;;;;;;4980608;28;20031;-66
2022/06/17 03:40:28;;;;;;;13.75;11.90;;;18.80;99.90;;;;;;4983479;28;20488;-67
2022/06/17 03:43:15;;;;;;;13.75;11.20;;;18.70;99.90;;;;;;4982946;28;20373;-67
2022/06/17 03:45:58;;;;;;;14.57;12.15;;;18.80;99.90;;;;;;4982643;28;20109;-67
2022/06/17 03:48:39;;;;;;;15.10;12.93;;;18.60;99.90;;;;;;4982681;28;20059;-67
2022/06/17 03:51:05;;;;;;;14.18;12.70;;;18.40;99.90;;;;;;4982454;28;20119;-67
2022/06/17 03:53:34;;;;;;;13.60;12.20;;;18.40;99.90;;;;;;4982392;28;20104;-66
2022/06/17 03:56:24;;;;;;;15.60;12.57;;;18.80;99.90;;;;;;4978301;28;20047;-67
2022/06/17 03:58:53;;;;;;;12.57;11.20;;;19.20;99.90;;;;;;4992845;28;20092;-67
2022/06/17 04:01:32;;;;;;;16.70;11.98;;;19.40;99.90;;;;;;4989904;28;20026;-67
2022/06/17 04:04:03;;;;;;;14.25;12.85;;;19.30;99.90;;;;;;4989349;28;20034;-67
2022/06/17 04:06:38;;;;;;;15.32;13.70;;;18.80;99.90;;;;;;4985992;28;20039;-67
2022/06/17 04:09:17;;;;;;;13.73;11.90;;;18.50;99.90;;;;;;4982310;28;20051;-67
2022/06/17 04:11:45;;;;;;;14.90;13.38;;;18.60;99.90;;;;;;4982542;28;20045;-67
2022/06/17 04:14:32;;;;;;;15.85;12.35;;;18.50;99.90;;;;;;4978337;28;20033;-67
2022/06/17 04:17:12;;;;;;;14.38;12.85;;;19.20;99.90;;;;;;4993106;28;20121;-65
2022/06/17 04:19:40;;;;;;;17.27;13.10;;;18.70;99.90;;;;;;4990280;28;20113;-68
2022/06/17 04:22:19;;;;;;;17.42;13.43;;;18.90;99.90;;;;;;4981294;28;20049;-68
2022/06/17 04:24:56;;;;;;;14.75;12.73;;;19.30;99.90;;;;;;4982493;28;20373;-67
2022/06/17 04:27:24;;;;;;;16.38;13.10;;;19.10;99.90;;;;;;4982169;28;20027;-66
2022/06/17 04:29:53;;;;;;;15.18;13.60;;;19.10;99.90;;;;;;4981956;28;20034;-67
2022/06/17 04:32:22;;;;;;;14.55;12.93;;;18.60;99.90;;;;;;4980116;28;20037;-67
2022/06/17 04:34:47;;;;;;;15.63;12.73;;;18.50;99.90;;;;;;4977472;28;20361;-67
2022/06/17 04:37:19;;;;;;;17.45;13.38;;;18.50;99.90;;;;;;4980188;28;20078;-66
2022/06/17 04:39:52;;;;;;;15.57;13.25;;;18.40;99.90;;;;;;4981801;28;20035;-68
2022/06/17 04:42:35;;;;;;;14.80;13.07;;;18.20;99.90;;;;;;4981331;28;20027;-67
2022/06/17 04:45:02;;;;;;;15.80;14.20;;;18.60;99.90;;;;;;4981857;28;20117;-67
2022/06/17 04:47:28;;;;;;;16.80;13.80;;;18.50;99.90;;;;;;4980294;28;20022;-67
2022/06/17 04:49:57;;;;;;;15.45;13.90;;;18.50;99.90;;;;;;4975957;28;20094;-67
2022/06/17 04:52:27;;;;;;;16.17;14.45;;;18.50;99.90;;;;;;4978941;28;20046;-68
2022/06/17 04:54:59;;;;;;;16.38;14.50;;;18.40;99.90;;;;;;4987718;28;20093;-67
2022/06/17 04:57:26;;;;;;;15.35;13.77;;;18.50;99.90;;;;;;4981635;28;20058;-67
2022/06/17 04:59:55;;;;;;;14.95;13.43;;;18.60;99.90;;;;;;4976997;28;20030;-67
2022/06/17 05:02:23;;;;;;;15.02;13.40;;;18.80;99.90;;;;;;4989701;28;20038;-67
2022/06/17 05:04:51;;;;;;;14.27;12.88;;;18.80;99.90;;;;;;4991214;28;20030;-67
2022/06/17 05:07:18;;;;;;;15.57;13.95;;;18.90;99.90;;;;;;4989025;28;20438;-66
2022/06/17 05:09:51;;;;;;;18.05;13.80;;;19.00;99.90;;;;;;4987947;28;20577;-67
2022/06/17 05:12:29;;;;;;;16.15;13.13;;;19.10;99.90;;;;;;4987791;28;20080;-65
2022/06/17 05:15:04;;;;;;;18.00;14.05;;;19.30;99.90;;;;;;4988306;28;20054;-67
2022/06/17 05:17:30;;;;;;;15.18;13.48;;;19.40;99.90;;;;;;4988060;28;20031;-68
2022/06/17 05:19:56;;;;;;;18.20;13.25;;;19.50;99.90;;;;;;4991791;28;20030;-67
2022/06/17 05:22:33;;;;;;;17.92;13.82;;;19.80;99.90;;;;;;4988547;28;20026;-67
2022/06/17 05:25:02;;;;;;;14.05;12.60;;;20.30;99.90;;;;;;4980580;28;20043;-67
2022/06/17 05:27:28;;;;;;;17.42;13.40;;;20.40;99.90;;;;;;4980995;28;20553;-67
2022/06/17 05:29:53;;;;;;;17.67;12.98;;;20.70;99.90;;;;;;4981389;28;20035;-67
2022/06/17 05:32:20;;;;;;;17.67;12.88;;;21.00;99.90;;;;;;4976823;28;20064;-67
2022/06/17 05:34:48;;;;;;;19.15;13.70;;;21.10;99.90;;;;;;4990468;28;20026;-68
2022/06/17 05:37:14;;;;;;;17.85;13.52;;;21.30;99.90;;;;;;4988342;28;20109;-68
2022/06/17 05:39:40;;;;;;;16.65;12.95;;;21.60;99.90;;;;;;4987595;28;20454;-68
2022/06/17 05:42:07;;;;;;;14.73;11.75;;;21.80;99.90;;;;;;4987830;28;20034;-68
2022/06/17 05:44:33;;;;;;;18.98;12.43;;;22.10;99.90;;;;;;4987896;28;20027;-70
2022/06/17 05:46:59;;;;;;;17.40;12.40;;;21.90;99.90;;;;;;4991504;28;20053;-67
2022/06/17 05:49:25;;;;;;;16.33;12.30;;;22.30;99.90;;;;;;4988233;28;20014;-68
2022/06/17 05:51:51;;;;;;;20.65;15.13;;;23.00;99.90;;;;;;4987594;28;20483;-66
2022/06/17 05:54:17;;;;;;;24.27;18.55;;;23.30;99.90;;;;;;4988583;28;20031;-68
2022/06/17 05:56:44;;;;;;;21.73;18.17;;;23.70;99.90;;;;;;4984655;28;20050;-67
2022/06/17 05:59:10;;;;;;;20.65;18.50;;;23.80;99.90;;;;;;4981827;28;20019;-67
2022/06/17 06:01:36;;;;;;;19.40;16.20;;;23.40;99.90;;;;;;4980348;28;20034;-67
2022/06/17 06:04:02;;;;;;;17.50;13.02;;;23.60;99.90;;;;;;4992103;28;20028;-68
2022/06/17 06:06:29;;;;;;;14.85;12.70;;;23.80;99.90;;;;;;4991162;28;20042;-66
2022/06/17 06:08:55;;;;;;;19.52;12.77;;;23.60;99.90;;;;;;4992966;28;20078;-67
2022/06/17 06:11:21;;;;;;;16.95;12.48;;;24.50;99.90;;;;;;4980698;28;20070;-66
2022/06/17 06:13:46;;;;;;;17.15;12.98;;;25.10;99.90;;;;;;4993579;28;20376;-66
2022/06/17 06:16:13;;;;;;;16.92;12.43;;;25.70;99.90;;;;;;4991804;28;20061;-66
2022/06/17 06:18:39;;;;;;;15.88;12.25;;;26.20;99.90;;;;;;4991014;28;20496;-67
2022/06/17 06:21:06;;;;;;;18.10;11.77;;;26.40;99.90;;;;;;4991082;28;20033;-67
2022/06/17 06:23:34;;;;;;;17.20;11.82;;;26.80;99.90;;;;;;4991079;28;20026;-66
2022/06/17 06:25:59;;;;;;;17.30;12.32;;;26.90;99.90;;;;;;4979861;28;20038;-67
2022/06/17 06:28:26;;;;;;;16.45;11.55;;;26.80;99.90;;;;;;4991529;28;20598;-67
2022/06/17 06:31:32;;;;;;;18.75;11.40;;;27.30;99.90;;;;;;4990703;28;20034;-67
2022/06/17 06:33:58;;;;;;;15.77;11.13;;;27.30;99.90;;;;;;4983216;28;20038;-66
2022/06/17 06:36:25;;;;;;;19.20;11.55;;;27.70;99.90;;;;;;4984084;28;20058;-66
2022/06/17 06:38:51;;;;;;;13.82;11.32;;;28.30;99.90;;;;;;4984131;28;20041;-66
2022/06/17 06:41:21;;;;;;;17.00;10.60;;;28.20;99.90;;;;;;4981724;28;20027;-66
2022/06/17 06:43:47;;;;;;;15.95;10.88;;;28.30;99.90;;;;;;4977912;28;20539;-66
2022/06/17 06:46:15;;;;;;;15.50;10.85;;;28.90;99.90;;;;;;4982231;28;20142;-67
2022/06/17 06:48:42;;;;;;;19.13;11.18;;;29.10;99.90;;;;;;4984482;28;20058;-66
2022/06/17 06:51:07;;;;;;;21.13;11.30;;;29.40;99.90;;;;;;4983916;28;20106;-66
2022/06/17 06:53:33;;;;;;;18.00;11.65;;;28.40;99.90;;;;;;4983770;28;20141;-65
2022/06/17 06:55:59;;;;;;;22.00;12.10;;;28.70;99.90;;;;;;4979115;28;20043;-65
2022/06/17 06:58:26;;;;;;;16.90;13.57;;;27.30;99.90;;;;;;4990947;28;20027;-65
2022/06/17 07:00:56;;;;;;;18.80;15.25;;;27.60;99.90;;;;;;4986662;28;20030;-66
2022/06/17 07:03:23;;;;;;;18.85;15.02;;;26.70;99.90;;;;;;4983670;28;20027;-65
2022/06/17 07:05:52;;;;;;;16.58;14.57;;;27.10;99.90;;;;;;4983060;28;20034;-66
2022/06/17 07:08:22;;;;;;;19.67;14.38;;;28.00;99.90;;;;;;4981497;28;20503;-67
2022/06/17 07:10:49;;;;;;;18.27;13.57;;;28.40;99.90;;;;;;4978910;28;20105;-66
2022/06/17 07:13:16;;;;;;;18.08;12.30;;;28.60;99.90;;;;;;4981122;28;20031;-63
2022/06/17 07:15:43;;;;;;;16.58;12.15;;;28.40;99.90;;;;;;4983367;28;20451;-66
2022/06/17 07:18:18;;;;;;;20.67;12.60;;;28.00;99.90;;;;;;4983280;28;20030;-65
2022/06/17 07:20:53;;;;;;;17.02;12.27;;;28.30;99.90;;;;;;4983269;28;20030;-66
2022/06/17 07:23:32;;;;;;;16.85;12.57;;;28.50;99.90;;;;;;4981375;28;20372;-65
2022/06/17 07:25:59;;;;;;;15.60;12.13;;;28.10;99.90;;;;;;4978846;28;20030;-66
2022/06/17 07:28:26;;;;;;;15.48;12.75;;;28.80;99.90;;;;;;4979541;28;20550;-65
2022/06/17 07:30:53;;;;;;;16.27;13.55;;;28.50;99.90;;;;;;4983385;28;20031;-65
2022/06/17 07:33:21;;;;;;;20.88;13.77;;;28.00;99.90;;;;;;4983462;28;20031;-65
2022/06/17 07:35:53;;;;;;;21.33;13.68;;;28.70;99.90;;;;;;4983098;28;20046;-65
2022/06/17 07:41:07;;;;;;;22.10;13.02;;;29.50;99.90;;;;;;4978686;28;20041;-65
2022/06/17 07:43:33;;;;;;;20.73;13.57;;;29.40;99.90;;;;;;4990963;28;20026;-66
2022/06/17 07:46:01;;;;;;;21.98;12.68;;;29.50;99.90;;;;;;4989892;28;20061;-66
2022/06/17 07:48:27;;;;;;;22.63;12.32;;;31.10;99.90;;;;;;4989211;28;20420;-65
2022/06/17 07:50:53;;;;;;;15.60;11.95;;;30.90;99.90;;;;;;4989654;28;20031;-65
2022/06/17 07:53:19;;;;;;;13.40;11.90;;;31.00;99.90;;;;;;4991577;28;20081;-66
2022/06/17 07:55:45;;;;;;;15.32;11.10;;;32.40;99.90;;;;;;4991152;28;20503;-65
2022/06/17 07:58:13;;;;;;;14.15;11.90;;;31.50;99.90;;;;;;4989786;28;20034;-66
2022/06/17 08:00:44;;;;;;;18.08;12.18;;;31.50;99.90;;;;;;4989440;28;20023;-66
2022/06/17 08:03:11;;;;;;;14.45;11.80;;;32.70;99.90;;;;;;4988739;28;20458;-65
2022/06/17 08:05:40;;;;;;;16.08;11.93;;;32.70;99.90;;;;;;4993064;28;20030;-65
2022/06/17 08:08:08;;;;;;;15.18;11.75;;;33.00;99.90;;;;;;4978931;28;20049;-65
2022/06/17 08:10:35;;;;;;;13.85;12.13;;;33.50;99.90;;;;;;4977854;28;20031;-65
2022/06/17 08:13:06;;;;;;;14.20;12.68;;;33.10;99.90;;;;;;4989123;28;20084;-65
2022/06/17 08:15:33;;;;;;;17.80;13.18;;;33.50;99.90;;;;;;4988901;28;20073;-65
2022/06/17 08:17:59;;;;;;;19.33;12.40;;;35.40;99.30;;;;;;4988221;28;20050;-66
2022/06/17 08:20:32;;;;;;;14.55;11.02;;;34.80;98.90;;;;;;4990076;28;20018;-65
2022/06/17 08:22:58;;;;;;;13.47;12.10;;;34.90;99.30;;;;;;4992839;28;20034;-64
2022/06/17 08:25:24;;;;;;;14.75;12.95;;;34.50;99.10;;;;;;4989061;28;20328;-65
2022/06/17 08:27:55;;;;;;;14.80;10.90;;;35.00;99.00;;;;;;4982814;28;20497;-65
2022/06/17 08:30:27;;;;;;;15.82;11.32;;;35.00;98.40;;;;;;4982109;28;20069;-65
2022/06/17 08:32:55;;;;;;;12.87;11.57;;;34.50;99.90;;;;;;4981987;28;20014;-65
2022/06/17 08:35:29;;;;;;;12.63;10.82;;;34.90;98.60;;;;;;4980628;28;20018;-65
2022/06/17 08:38:01;;;;;;;15.13;10.45;;;35.20;98.30;;;;;;4977312;28;20038;-65
2022/06/17 08:40:54;;;;;;;12.63;10.75;;;35.40;98.00;;;;;;4977964;28;20038;-65
2022/06/17 08:43:58;;;;;;;15.82;10.95;;;35.30;97.50;;;;;;4978351;28;20582;-65
2022/06/17 08:46:43;;;;;;;13.40;10.82;;;35.10;97.90;;;;;;4928823;29;20080;-65
2022/06/17 08:49:21;;;;;;;17.95;11.38;;;35.10;98.10;;;;;;4932775;29;20174;-65
2022/06/17 08:51:52;;;;;;;13.70;11.38;;;37.20;97.60;;;;;;4928305;29;20211;-65
2022/06/17 08:54:21;;;;;;;15.23;11.05;;;36.50;99.90;;;;;;4932350;29;20035;-65
2022/06/17 08:57:16;;;;;;;13.98;10.88;;;37.30;97.10;;;;;;4928285;29;20055;-65
2022/06/17 08:59:54;;;;;;;14.75;10.75;;;37.30;99.10;;;;;;4932516;29;20042;-66
2022/06/17 09:02:57;;;;;;;14.93;11.30;;;38.70;99.90;;;;;;4930339;29;20082;-65
2022/06/17 09:05:50;;;;;;;16.38;10.93;;;37.80;96.30;;;;;;4917439;29;20143;-65
2022/06/17 09:08:38;;;;;;;13.52;10.10;;;37.70;99.20;;;;;;4931806;29;20459;-65
2022/06/17 09:11:20;;;;;;;14.73;10.20;;;38.00;99.90;;;;;;4917739;29;20051;-65
2022/06/17 09:14:10;;;;;;;14.20;10.40;;;38.50;99.90;;;;;;4932583;29;20489;-66
2022/06/17 09:16:56;;;;;;;11.60;9.30;;;39.00;96.30;;;;;;4917302;29;20149;-66
2022/06/17 09:19:28;;;;;;;14.77;9.57;;;39.00;93.30;;;;;;4928554;29;20069;-65
2022/06/17 09:22:01;;;;;;;12.90;9.30;;;38.00;92.80;;;;;;4932371;29;20031;-65
2022/06/17 09:24:30;;;;;;;11.60;9.13;;;38.60;91.50;;;;;;4980909;28;20066;-66
2022/06/17 09:27:00;;;;;;;13.65;8.82;;;39.70;90.50;;;;;;4981137;28;20079;-66
2022/06/17 09:29:35;;;;;;;12.40;8.45;;;39.00;89.30;;;;;;4980246;28;20026;-65
2022/06/17 09:32:05;;;;;;;13.95;8.73;;;38.90;89.00;;;;;;4976461;28;20113;-66
2022/06/17 09:35:04;;;;;;;13.32;9.18;;;37.50;90.20;;;;;;4989025;28;20038;-65
2022/06/17 09:37:35;;;;;;;10.77;8.23;;;37.00;90.90;;;;;;4913544;29;20048;-65
2022/06/17 09:40:20;;;;;;;12.85;8.98;;;39.10;87.70;;;;;;4914626;29;20051;-65
2022/06/17 09:42:57;;;;;;;10.10;8.55;;;37.80;91.90;;;;;;4913816;29;20480;-65
2022/06/17 09:45:36;;;;;;;12.90;7.57;;;39.10;91.50;;;;;;4914708;29;20093;-66
2022/06/17 09:48:16;;;;;;;14.52;7.90;;;38.00;92.90;;;;;;4914035;29;20060;-65
2022/06/17 09:50:48;;;;;;;13.10;7.53;;;38.10;92.20;;;;;;4914338;29;20024;-65
2022/06/17 09:53:22;;;;;;;11.25;6.63;;;38.30;88.60;;;;;;4914012;29;20087;-65
2022/06/17 09:56:12;;;;;;;12.05;7.30;;;37.20;86.80;;;;;;4914056;29;20096;-65
2022/06/17 09:58:46;;;;;;;10.30;6.82;;;37.20;87.70;;;;;;4875753;29;20041;-65
2022/06/17 10:01:13;;;;;;;10.80;7.00;;;37.00;88.80;;;;;;4873815;29;20049;-65
2022/06/17 10:03:39;;;;;;;10.25;7.15;;;38.10;84.30;;;;;;4876576;29;20104;-65
2022/06/17 10:06:13;;;;;;;10.02;6.22;;;37.80;86.30;;;;;;4876045;29;20060;-65
2022/06/17 10:09:00;;;;;;;9.82;6.15;;;39.40;84.80;;;;;;4876528;29;20048;-65
2022/06/17 10:11:55;;;;;;;10.15;6.55;;;38.50;84.50;;;;;;4876932;29;20029;-65
2022/06/17 10:14:42;;;;;;;12.05;7.18;;;37.90;83.10;;;;;;4893229;29;20046;-65
2022/06/17 10:20:20;;;;;;;7.18;5.88;;;37.80;84.20;;;;;;4917157;29;20078;-66
2022/06/17 10:22:55;;;;;;;11.57;6.43;;;37.20;84.00;;;;;;4929734;29;20115;-66
2022/06/17 10:25:29;;;;;;;9.20;6.13;;;36.70;85.90;;;;;;4931208;29;20075;-66
2022/06/17 10:28:39;;;;;;;8.98;5.97;;;36.10;87.50;;;;;;4921280;29;20059;-66
2022/06/17 10:31:43;;;;;;;7.95;4.60;;;36.80;85.50;;;;;;4899775;29;20612;-66
2022/06/17 10:34:18;;;;;;;9.05;4.40;;;37.00;78.50;;;;;;4919507;29;20037;-66
2022/06/17 10:36:45;;;;;;;6.25;4.60;;;36.60;78.40;;;;;;4976094;28;20497;-65
2022/06/17 10:39:14;;;;;;;6.85;4.95;;;36.80;78.10;;;;;;4980895;28;20085;-66
2022/06/17 10:41:41;;;;;;;8.25;4.72;;;36.70;78.40;;;;;;4983209;28;20022;-65
2022/06/17 10:44:11;;;;;;;8.25;3.78;;;36.90;77.90;;;;;;4980192;28;20030;-65
2022/06/17 10:46:41;;;;;;;11.55;3.80;;;35.80;76.20;;;;;;4979825;28;20392;-66
2022/06/17 10:49:16;;;;;;;8.18;3.95;;;35.90;75.80;;;;;;4990254;28;20026;-65
2022/06/17 10:51:45;;;;;;;4.75;4.22;;;36.50;75.20;;;;;;4990087;28;20080;-65
2022/06/17 10:54:29;;;;;;;9.23;4.57;;;36.40;76.60;;;;;;4990253;28;20030;-65
2022/06/17 10:57:06;;;;;;;7.50;4.20;;;36.80;78.80;;;;;;4990004;28;20062;-66
2022/06/17 10:59:41;;;;;;;8.38;4.30;;;37.20;76.90;;;;;;4990918;28;20030;-66
2022/06/17 11:02:39;;;;;;;7.72;3.70;;;36.70;74.80;;;;;;4979819;28;20026;-66
2022/06/17 11:05:06;;;;;;;6.28;4.47;;;37.10;77.40;;;;;;4957469;28;20514;-66
2022/06/17 11:07:32;;;;;;;8.13;3.75;;;37.30;76.00;;;;;;4969606;28;20519;-66
2022/06/17 11:10:02;;;;;;;6.15;4.05;;;36.90;76.20;;;;;;4969312;28;20034;-66
2022/06/17 11:12:35;;;;;;;8.25;4.00;;;37.20;76.50;;;;;;4972783;28;20045;-65
2022/06/17 11:15:05;;;;;;;6.68;4.25;;;36.50;75.70;;;;;;4968392;28;20454;-65
2022/06/17 11:17:41;;;;;;;7.88;4.45;;;36.00;75.80;;;;;;4972678;28;20030;-65
2022/06/17 11:20:18;;;;;;;12.45;4.50;;;35.60;76.50;;;;;;4971966;28;20023;-66
2022/06/17 11:22:56;;;;;;;8.88;4.80;;;36.90;76.80;;;;;;4971153;28;20511;-65
2022/06/17 11:25:43;;;;;;;10.20;4.75;;;37.10;75.70;;;;;;4959008;28;20042;-66
2022/06/17 11:28:24;;;;;;;7.60;4.28;;;37.00;76.30;;;;;;4972528;28;20082;-65
2022/06/17 11:30:58;;;;;;;7.97;4.18;;;37.00;73.60;;;;;;4968012;28;20582;-65
2022/06/17 11:33:33;;;;;;;7.82;4.03;;;36.10;73.10;;;;;;4972363;28;20030;-65
2022/06/17 11:36:19;;;;;;;9.73;4.25;;;37.10;73.70;;;;;;4968540;28;20061;-65
2022/06/17 11:38:45;;;;;;;7.53;4.93;;;37.00;73.30;;;;;;4972319;28;20056;-65
2022/06/17 11:41:36;;;;;;;10.98;4.55;;;36.50;73.00;;;;;;4978117;28;20049;-65
2022/06/17 11:44:16;;;;;;;13.38;5.00;;;36.30;76.10;;;;;;4978471;28;20026;-66
2022/06/17 11:46:55;;;;;;;10.63;5.00;;;36.90;75.00;;;;;;4991748;28;20399;-66
2022/06/17 11:49:22;;;;;;;7.80;4.72;;;37.10;73.80;;;;;;4979000;28;20090;-65
2022/06/17 11:51:49;;;;;;;11.13;4.75;;;36.80;76.50;;;;;;4982726;28;20071;-65
2022/06/17 11:54:21;;;;;;;10.05;4.90;;;36.70;76.30;;;;;;4982630;28;20027;-66
2022/06/17 11:56:48;;;;;;;9.25;4.80;;;37.40;74.60;;;;;;4982534;28;20042;-66
2022/06/17 11:59:32;;;;;;;13.30;4.97;;;36.70;74.70;;;;;;4980264;28;20450;-66
2022/06/17 12:01:57;;;;;;;10.57;5.00;;;36.60;74.90;;;;;;4977545;28;20050;-65
2022/06/17 12:04:51;;;;;;;12.93;4.80;;;36.90;75.20;;;;;;4979956;28;20615;-65
2022/06/17 12:07:19;;;;;;;;;;;37.00;75.00;;;;;;4979738;28;20035;-66
2022/06/17 12:09:48;;;;;;;15.75;5.00;;;37.00;73.00;;;;;;4982144;28;19921;-65
2022/06/17 12:12:17;;;;;;;13.35;5.13;;;37.30;72.70;;;;;;4982691;28;20027;-66
2022/06/17 12:14:58;;;;;;;14.70;4.82;;;36.90;72.60;;;;;;4982473;28;20392;-66
2022/06/17 12:17:24;;;;;;;11.20;4.60;;;36.80;71.40;;;;;;4980680;28;20026;-66
2022/06/17 12:19:50;;;;;;;14.18;4.63;;;37.20;69.00;;;;;;4977624;28;20038;-66
2022/06/17 12:22:25;;;;;;;11.25;4.75;;;37.00;68.20;;;;;;4980420;28;20029;-66
2022/06/17 12:25:09;;;;;;;11.63;4.57;;;37.20;69.10;;;;;;4982435;28;20089;-66
2022/06/17 12:27:42;;;;;;;13.13;4.70;;;37.10;67.40;;;;;;4981987;28;20042;-66
2022/06/17 12:30:13;;;;;;;;;;;37.40;66.90;;;;;;4982430;28;20077;-66
2022/06/17 12:33:00;;;;;;;15.90;4.60;;;37.10;67.00;;;;;;4981831;28;19913;-66
2022/06/17 12:35:30;;;;;;;12.98;4.88;;;37.00;69.10;;;;;;4980910;28;20030;-66
2022/06/17 12:38:16;;;;;;;11.18;4.00;;;37.50;65.80;;;;;;4977506;28;20495;-66
2022/06/17 12:40:56;;;;;;;10.10;4.07;;;37.30;66.70;;;;;;4991121;28;20026;-66
2022/06/17 12:43:41;;;;;;;14.20;4.18;;;36.70;71.00;;;;;;4978125;28;20041;-66
2022/06/17 12:46:41;;;;;;;12.10;4.00;;;37.50;67.30;;;;;;4988079;28;20526;-65
2022/06/17 12:56:02;;;;;;;15.60;4.30;;;37.70;68.70;;;;;;4928136;29;20079;-66
2022/06/17 12:58:49;;;;;;;10.85;3.90;;;37.70;69.50;;;;;;4933273;29;20032;-66
2022/06/17 13:01:25;;;;;;;14.25;4.50;;;38.50;67.60;;;;;;4926766;29;20118;-66
2022/06/17 13:04:05;;;;;;;8.57;4.13;;;37.80;65.30;;;;;;4927714;29;20421;-66
2022/06/17 13:06:52;;;;;;;19.15;4.97;;;37.80;63.70;;;;;;4928412;29;20155;-66
2022/06/17 13:09:23;;;;;;;13.27;4.35;;;37.70;63.10;;;;;;4928391;29;20075;-66
2022/06/17 13:12:27;;;;;;;13.13;4.35;;;37.60;66.20;;;;;;4928028;29;20036;-66
2022/06/17 13:15:17;;;;;;;13.90;4.45;;;37.90;64.60;;;;;;4871104;29;20077;-66
2022/06/17 13:18:04;;;;;;;14.68;4.60;;;38.00;64.80;;;;;;4875472;29;20041;-66
2022/06/17 13:20:45;;;;;;;15.00;4.10;;;38.30;65.10;;;;;;4872494;29;20065;-66